Saint Bonifacius, Minnesota
Current Conditions -  °F | °C
As of 4:53 PM on Saturday 25 Oct 2014 (Local Time) from KFCM Reporting Station
Clear Clear  
Wind Chill: 63°   Ceiling: Unl
Heat Index: 63°   Visibility: 10mi
Dew Point: 24°   Wind: 12mph
Humidity: 23%   Direction: 300°WNW
Pressure: 30.03"   Gusts: 23mph
Location:  44.91°N, 93.75°W
Report Text: KFCM 252153Z 30010G20KT 10SM CLR 17/M04 A3003 RMK AO2 SLP171 T01721044
Loading
Personal Weather Stations






























Interactive Weather Map
Tropical Storm Tracking
New forecast layout! Learn more

10-Day Weather Forecast

Advertisements
Track Severe Weather on mobile